createdAt,value
2023-03-22T00:02:20.189Z,7.65
2023-03-22T00:04:49.325Z,7.61
2023-03-22T00:07:18.822Z,7.60
2023-03-22T00:09:48.532Z,7.56
2023-03-22T00:12:19.061Z,7.53
2023-03-22T00:14:50.127Z,7.52
2023-03-22T00:17:19.840Z,7.52
2023-03-22T00:19:50.031Z,7.52
2023-03-22T00:22:19.406Z,7.52
2023-03-22T00:24:49.688Z,7.53
2023-03-22T00:27:19.676Z,7.54
2023-03-22T00:29:49.460Z,7.56
2023-03-22T00:32:20.035Z,7.61
2023-03-22T00:34:49.245Z,7.65
2023-03-22T00:37:19.042Z,7.67
2023-03-22T00:39:48.823Z,7.68
2023-03-22T00:42:18.743Z,7.71
2023-03-22T00:44:51.543Z,7.73
2023-03-22T00:47:20.851Z,7.75
2023-03-22T00:49:50.182Z,7.78
2023-03-22T00:52:19.327Z,7.81
2023-03-22T00:54:48.941Z,7.82
2023-03-22T00:57:19.723Z,7.79
2023-03-22T00:59:50.613Z,7.76
2023-03-22T01:02:19.928Z,7.75
2023-03-22T01:04:50.406Z,7.72
2023-03-22T01:07:21.850Z,7.65
2023-03-22T01:09:52.132Z,7.61
2023-03-22T01:12:22.154Z,7.58
2023-03-22T01:14:51.832Z,7.53
2023-03-22T01:17:22.815Z,7.49
2023-03-22T01:19:53.796Z,7.44
2023-03-22T01:22:23.827Z,7.42
2023-03-22T01:24:54.911Z,7.33
2023-03-22T01:27:24.568Z,7.28
2023-03-22T01:29:53.658Z,7.25
2023-03-22T01:32:24.647Z,7.25
2023-03-22T01:34:54.977Z,7.26
2023-03-22T01:37:28.170Z,7.30
2023-03-22T01:39:59.851Z,7.36
2023-03-22T01:42:29.630Z,7.42
2023-03-22T01:45:29.363Z,7.44
2023-03-22T01:48:02.946Z,7.48
2023-03-22T01:50:39.530Z,7.46
2023-03-22T01:53:14.934Z,7.49
2023-03-22T01:55:45.969Z,7.53
2023-03-22T01:58:19.204Z,7.55
2023-03-22T02:00:55.932Z,7.56
2023-03-22T02:03:43.971Z,7.58
2023-03-22T02:06:14.335Z,7.60
2023-03-22T02:08:45.099Z,7.62
2023-03-22T02:11:26.489Z,7.61
2023-03-22T02:14:27.561Z,7.57
2023-03-22T02:17:26.493Z,7.55
2023-03-22T02:20:29.170Z,7.53
2023-03-22T02:23:29.000Z,7.49
2023-03-22T02:26:32.264Z,7.43
2023-03-22T02:29:27.172Z,7.37
2023-03-22T02:32:21.594Z,7.32
2023-03-22T02:35:38.566Z,7.27
2023-03-22T02:38:24.392Z,7.21
2023-03-22T02:41:17.774Z,7.15
2023-03-22T02:44:18.872Z,7.09
2023-03-22T02:47:14.612Z,7.05
2023-03-22T02:50:06.342Z,7.06
2023-03-22T02:52:51.552Z,7.07
2023-03-22T02:55:32.111Z,7.10
2023-03-22T02:58:26.949Z,7.13
2023-03-22T03:01:09.899Z,7.10
2023-03-22T03:03:40.513Z,7.10
2023-03-22T03:06:17.322Z,7.10
2023-03-22T03:08:53.851Z,7.11
2023-03-22T03:11:25.102Z,7.12
2023-03-22T03:13:54.854Z,7.16
2023-03-22T03:16:28.087Z,7.18
2023-03-22T03:19:27.656Z,7.20
2023-03-22T03:22:30.252Z,7.20
2023-03-22T03:25:34.010Z,7.15
2023-03-22T03:28:23.866Z,7.12
2023-03-22T03:31:07.113Z,7.12
2023-03-22T03:33:58.122Z,7.09
2023-03-22T03:36:30.174Z,7.05
2023-03-22T03:39:21.183Z,7.01
2023-03-22T03:41:53.983Z,6.97
2023-03-22T03:44:25.066Z,6.92
2023-03-22T03:46:54.983Z,6.88
2023-03-22T03:49:24.681Z,6.84
2023-03-22T03:51:56.630Z,6.78
2023-03-22T03:54:27.055Z,6.72
2023-03-22T03:57:03.968Z,6.69
2023-03-22T03:59:36.375Z,6.68
2023-03-22T04:02:12.452Z,6.69
2023-03-22T04:04:42.804Z,6.70
2023-03-22T04:07:12.358Z,6.68
2023-03-22T04:09:45.388Z,6.69
2023-03-22T04:12:35.912Z,6.68
2023-03-22T04:15:17.368Z,6.67
2023-03-22T04:17:50.014Z,6.66
2023-03-22T04:20:25.343Z,6.66
2023-03-22T04:22:58.636Z,6.65
2023-03-22T04:25:30.683Z,6.67
2023-03-22T04:28:10.273Z,6.67
2023-03-22T04:30:40.705Z,6.68
2023-03-22T04:33:39.680Z,6.71
2023-03-22T04:36:39.967Z,6.71
2023-03-22T04:39:17.798Z,6.70
2023-03-22T04:41:57.234Z,6.67
2023-03-22T04:44:27.772Z,6.63
2023-03-22T04:46:57.137Z,6.59
2023-03-22T04:49:29.697Z,6.57
2023-03-22T04:52:22.222Z,6.53
2023-03-22T04:54:59.209Z,6.46
2023-03-22T04:57:28.612Z,6.39
2023-03-22T04:59:59.481Z,6.34
2023-03-22T05:02:28.834Z,6.29
2023-03-22T05:05:01.447Z,6.26
2023-03-22T05:07:40.282Z,6.23
2023-03-22T05:10:11.699Z,6.20
2023-03-22T05:12:48.380Z,6.17
2023-03-22T05:15:28.094Z,6.12
2023-03-22T05:17:58.024Z,6.06
2023-03-22T05:20:34.283Z,6.05
2023-03-22T05:23:19.672Z,6.07
2023-03-22T05:26:00.003Z,6.06
2023-03-22T05:29:13.456Z,6.11
2023-03-22T05:32:08.507Z,6.16
2023-03-22T05:34:43.435Z,6.24
2023-03-22T05:37:22.929Z,6.32
2023-03-22T05:39:56.107Z,6.41
2023-03-22T05:42:31.934Z,6.50
2023-03-22T05:45:03.752Z,6.59
2023-03-22T05:47:51.126Z,6.71
2023-03-22T05:50:33.284Z,6.88
2023-03-22T05:53:04.263Z,7.03
2023-03-22T05:56:01.453Z,7.17
2023-03-22T05:58:34.043Z,7.29
2023-03-22T06:01:13.549Z,7.40
2023-03-22T06:04:07.369Z,7.60
2023-03-22T06:06:50.970Z,7.77
2023-03-22T06:09:39.838Z,7.91
2023-03-22T06:12:16.628Z,8.02
2023-03-22T06:14:58.074Z,8.16
2023-03-22T06:17:38.225Z,8.35
2023-03-22T06:20:12.345Z,8.51
2023-03-22T06:22:44.293Z,8.66
2023-03-22T06:25:15.182Z,8.78
2023-03-22T06:27:49.639Z,8.91
2023-03-22T06:30:22.644Z,9.05
2023-03-22T06:33:11.528Z,9.21
2023-03-22T06:35:44.045Z,9.34
2023-03-22T06:38:16.644Z,9.46
2023-03-22T06:40:46.793Z,9.59
2023-03-22T06:43:25.748Z,9.73
2023-03-22T06:46:01.562Z,9.87
2023-03-22T06:48:36.726Z,10.02
2023-03-22T06:51:11.251Z,10.18
2023-03-22T06:53:41.816Z,10.31
2023-03-22T06:56:12.045Z,10.37
2023-03-22T06:58:52.358Z,10.43
2023-03-22T07:01:22.835Z,10.46
2023-03-22T07:03:52.563Z,10.48
2023-03-22T07:06:28.293Z,10.51
2023-03-22T07:08:58.993Z,10.55
2023-03-22T07:11:32.461Z,10.57
2023-03-22T07:14:02.871Z,10.67
2023-03-22T07:16:55.993Z,10.76
2023-03-22T07:19:28.141Z,10.84
2023-03-22T07:21:58.760Z,10.97
2023-03-22T07:24:28.820Z,11.15
2023-03-22T07:26:59.718Z,11.34
2023-03-22T07:29:29.986Z,11.56
2023-03-22T07:32:01.854Z,11.72
2023-03-22T07:34:41.156Z,11.88
2023-03-22T07:37:21.614Z,12.08
2023-03-22T07:39:51.166Z,12.34
2023-03-22T07:42:20.914Z,12.61
2023-03-22T07:45:15.298Z,12.89
2023-03-22T07:48:04.670Z,13.15
2023-03-22T07:50:56.976Z,13.39
2023-03-22T07:53:31.301Z,13.63
2023-03-22T07:56:03.425Z,13.79
2023-03-22T07:58:34.021Z,13.94
2023-03-22T08:01:11.238Z,14.09
2023-03-22T08:04:12.703Z,14.25
2023-03-22T08:07:06.430Z,14.30
2023-03-22T08:09:38.032Z,14.32
2023-03-22T08:12:08.036Z,14.33
2023-03-22T08:14:38.984Z,14.37
2023-03-22T08:17:12.568Z,14.42
2023-03-22T08:19:54.269Z,14.42
2023-03-22T08:22:30.517Z,14.58
2023-03-22T08:25:45.129Z,14.68
2023-03-22T08:28:16.751Z,14.70
2023-03-22T08:30:49.206Z,14.75
2023-03-22T08:33:21.686Z,14.83
2023-03-22T08:35:51.280Z,14.95
2023-03-22T08:38:21.942Z,15.04
2023-03-22T08:40:57.089Z,15.15
2023-03-22T08:43:29.101Z,15.22
2023-03-22T08:46:01.010Z,15.33
2023-03-22T08:48:32.190Z,15.50
2023-03-22T08:51:12.711Z,15.72
2023-03-22T08:54:05.144Z,15.94
2023-03-22T08:57:16.517Z,16.20
2023-03-22T08:59:58.171Z,16.41
2023-03-22T09:02:39.280Z,16.57
2023-03-22T09:05:09.311Z,16.68
2023-03-22T09:07:40.192Z,16.86
2023-03-22T09:10:33.041Z,17.02
2023-03-22T09:16:49.123Z,17.40
2023-03-22T09:19:24.031Z,17.48
2023-03-22T09:21:53.330Z,17.57
2023-03-22T09:24:35.382Z,17.61
2023-03-22T09:27:07.068Z,17.74
2023-03-22T09:29:37.554Z,17.83
2023-03-22T09:32:18.373Z,17.91
2023-03-22T09:34:56.002Z,18.02
2023-03-22T09:37:30.914Z,18.15
2023-03-22T09:40:00.982Z,18.32
2023-03-22T09:42:35.704Z,18.44
2023-03-22T09:45:13.215Z,18.57
2023-03-22T09:47:47.626Z,18.73
2023-03-22T09:50:23.313Z,18.87
2023-03-22T09:52:53.471Z,19.04
2023-03-22T09:55:37.751Z,19.27
2023-03-22T09:58:45.162Z,19.48
2023-03-22T10:01:55.181Z,19.63
2023-03-22T10:04:43.354Z,19.87
2023-03-22T10:07:24.312Z,20.06
2023-03-22T10:10:12.673Z,20.24
2023-03-22T10:12:53.980Z,20.45
2023-03-22T10:15:38.767Z,20.66
2023-03-22T10:18:13.923Z,20.85
2023-03-22T10:20:59.702Z,20.80
2023-03-22T10:23:35.708Z,20.57
2023-03-22T10:26:08.332Z,20.38
2023-03-22T10:28:43.569Z,20.28
2023-03-22T10:31:21.745Z,20.48
2023-03-22T10:34:11.413Z,20.60
2023-03-22T10:36:43.302Z,20.40
2023-03-22T10:39:38.328Z,20.18
2023-03-22T10:42:24.204Z,19.95
2023-03-22T10:44:56.836Z,19.53
2023-03-22T10:47:46.157Z,19.19
2023-03-22T10:50:37.749Z,19.30
2023-03-22T10:53:09.684Z,19.75
2023-03-22T10:55:43.109Z,20.15
2023-03-22T10:58:22.962Z,20.50
2023-03-22T11:01:00.310Z,20.82
2023-03-22T11:03:41.013Z,21.16
2023-03-22T11:06:19.326Z,21.14
2023-03-22T11:09:16.116Z,20.90
2023-03-22T11:11:54.110Z,20.55
2023-03-22T11:14:33.776Z,20.65
2023-03-22T11:17:14.541Z,20.97
2023-03-22T11:19:56.485Z,21.40
2023-03-22T11:22:35.237Z,21.63
2023-03-22T11:25:16.891Z,21.83
2023-03-22T11:28:28.708Z,21.80
2023-03-22T11:31:11.809Z,22.01
2023-03-22T11:34:16.276Z,22.03
2023-03-22T11:36:52.020Z,22.24
2023-03-22T11:39:24.941Z,22.65
2023-03-22T11:42:07.030Z,22.97
2023-03-22T11:44:38.419Z,23.47
2023-03-22T11:47:14.531Z,23.74
2023-03-22T11:49:54.911Z,23.47
2023-03-22T11:52:28.181Z,23.71
2023-03-22T11:55:05.869Z,24.05
2023-03-22T11:57:37.321Z,24.36
2023-03-22T12:00:30.737Z,24.65
2023-03-22T12:03:14.463Z,24.38
2023-03-22T12:05:49.295Z,23.97
2023-03-22T12:08:26.786Z,23.35
2023-03-22T12:11:06.749Z,22.87
2023-03-22T12:13:54.069Z,22.51
2023-03-22T12:16:30.169Z,22.14
2023-03-22T12:19:33.043Z,21.67
2023-03-22T12:22:04.284Z,21.24
2023-03-22T12:24:33.508Z,21.28
2023-03-22T12:27:17.711Z,21.78
2023-03-22T12:30:04.675Z,22.25
2023-03-22T12:32:45.636Z,22.31
2023-03-22T12:35:36.501Z,22.26
2023-03-22T12:38:41.745Z,22.14
2023-03-22T12:41:16.048Z,22.19
2023-03-22T12:44:13.296Z,22.25
2023-03-22T12:46:48.206Z,22.16
2023-03-22T12:49:38.517Z,22.14
2023-03-22T12:52:44.790Z,22.53
2023-03-22T12:55:34.643Z,23.34
2023-03-22T12:58:07.711Z,23.92
2023-03-22T13:01:18.508Z,24.28
2023-03-22T13:03:53.195Z,24.65
2023-03-22T13:06:57.499Z,24.59
2023-03-22T13:09:31.152Z,24.53
2023-03-22T13:12:18.275Z,24.55
2023-03-22T13:14:51.334Z,24.49
2023-03-22T13:17:26.528Z,24.68
2023-03-22T13:20:12.247Z,24.90
2023-03-22T13:22:44.706Z,24.86
2023-03-22T13:25:31.197Z,24.74
2023-03-22T13:28:04.398Z,24.94
2023-03-22T13:30:50.765Z,25.31
2023-03-22T13:33:37.347Z,25.40
2023-03-22T13:36:26.647Z,25.22
2023-03-22T13:39:11.628Z,25.02
2023-03-22T13:41:41.223Z,24.52
2023-03-22T13:44:38.574Z,24.15
2023-03-22T13:47:31.009Z,23.81
2023-03-22T13:50:23.019Z,23.65
2023-03-22T13:53:18.435Z,23.38
2023-03-22T13:55:47.477Z,22.84
2023-03-22T13:58:49.331Z,22.38
2023-03-22T14:01:37.706Z,21.99
2023-03-22T14:04:14.584Z,21.69
2023-03-22T14:06:53.102Z,21.36
2023-03-22T14:09:36.802Z,21.10
2023-03-22T14:12:23.560Z,20.96
2023-03-22T14:14:57.715Z,20.69
2023-03-22T14:17:33.728Z,20.25
2023-03-22T14:20:11.096Z,19.89
